Time;durP1;ratioP1;P1;durP2;ratioP2;P2;SDS_P1;SDS_P2;PMS_P1;PMS_P2;Temp;Humidity;BMP_temperature;BMP_pressure;BME280_temperature;BME280_humidity;BME280_pressure;Samples;Min_cycle;Max_cycle;Signal;HPM_P1;HPM_P2
2021/03/09 00:01:24;;;;;;;0.57;0.50;;;0.20;99.90;;;;;;4985971;28;20189;-78
2021/03/09 00:03:50;;;;;;;0.90;0.63;;;0.30;99.90;;;;;;5002611;28;20259;-78
2021/03/09 00:06:15;;;;;;;0.80;0.40;;;0.30;99.90;;;;;;4987805;28;20267;-77
2021/03/09 00:08:41;;;;;;;0.70;0.43;;;0.30;99.90;;;;;;4987157;28;20177;-80
2021/03/09 00:11:06;;;;;;;0.50;0.50;;;0.40;99.90;;;;;;4987388;28;20195;-79
2021/03/09 00:13:32;;;;;;;0.93;0.80;;;0.50;99.90;;;;;;4989573;28;20200;-80
2021/03/09 00:15:57;;;;;;;1.27;0.60;;;0.40;99.90;;;;;;5004003;28;20197;-79
2021/03/09 00:18:23;;;;;;;1.00;0.60;;;0.50;99.90;;;;;;4987663;28;20189;-80
2021/03/09 00:20:49;;;;;;;2.77;0.83;;;0.50;99.90;;;;;;5003371;28;20549;-78
2021/03/09 00:23:14;;;;;;;0.50;0.50;;;0.50;99.90;;;;;;4987811;28;20211;-79
2021/03/09 00:25:40;;;;;;;0.67;0.67;;;0.50;99.90;;;;;;4988126;28;20283;-78
2021/03/09 00:28:05;;;;;;;1.47;0.90;;;0.60;99.90;;;;;;4986538;28;20215;-77
2021/03/09 00:30:31;;;;;;;0.50;0.50;;;0.50;99.90;;;;;;4984747;28;20188;-80
2021/03/09 00:32:56;;;;;;;1.27;0.73;;;0.50;99.90;;;;;;4987703;28;20224;-78
2021/03/09 00:35:22;;;;;;;1.23;0.67;;;0.50;99.90;;;;;;4996133;28;20300;-79
2021/03/09 00:37:47;;;;;;;1.00;0.50;;;0.50;99.90;;;;;;4976736;28;20283;-80
2021/03/09 00:40:13;;;;;;;1.33;0.90;;;0.50;99.90;;;;;;4978738;28;20678;-81
2021/03/09 00:42:39;;;;;;;0.83;0.83;;;0.60;99.90;;;;;;4979616;28;20290;-79
2021/03/09 00:45:05;;;;;;;0.50;0.50;;;0.60;99.90;;;;;;4979835;28;20204;-79
2021/03/09 00:47:31;;;;;;;0.57;0.57;;;0.50;99.90;;;;;;5011996;28;20192;-78
2021/03/09 00:49:56;;;;;;;0.27;0.27;;;0.50;99.90;;;;;;4982128;28;20212;-79
2021/03/09 00:52:22;;;;;;;0.50;0.30;;;0.60;99.90;;;;;;4982524;28;20192;-81
2021/03/09 00:54:47;;;;;;;0.30;0.30;;;0.50;99.90;;;;;;4995620;28;20193;-81
2021/03/09 00:57:13;;;;;;;1.07;0.67;;;0.60;99.90;;;;;;4980920;28;20567;-77
2021/03/09 00:59:39;;;;;;;2.90;1.30;;;0.60;99.90;;;;;;4979889;28;20188;-78
2021/03/09 01:02:04;;;;;;;0.90;0.47;;;0.50;99.90;;;;;;4981741;28;20226;-80
2021/03/09 01:04:30;;;;;;;0.47;0.47;;;0.60;99.90;;;;;;4980589;28;20216;-80
2021/03/09 01:06:55;;;;;;;0.40;0.40;;;0.60;99.90;;;;;;4979686;28;20223;-78
2021/03/09 01:09:21;;;;;;;1.10;0.60;;;0.50;99.90;;;;;;4979608;28;20534;-78
2021/03/09 01:11:46;;;;;;;0.97;0.50;;;0.50;99.90;;;;;;4981393;28;20188;-78
2021/03/09 01:14:12;;;;;;;0.80;0.53;;;0.50;99.90;;;;;;4980630;28;20551;-76
2021/03/09 01:16:37;;;;;;;1.67;0.73;;;0.50;99.90;;;;;;4986757;28;20185;-77
2021/03/09 01:19:03;;;;;;;0.43;0.43;;;0.50;99.90;;;;;;4984120;28;20184;-78
2021/03/09 01:21:29;;;;;;;0.50;0.50;;;0.50;99.90;;;;;;4980701;28;20188;-80
2021/03/09 01:23:54;;;;;;;0.60;0.57;;;0.50;99.90;;;;;;4979522;28;20298;-80
2021/03/09 01:26:20;;;;;;;4.33;0.77;;;0.50;99.90;;;;;;4982139;28;20181;-80
2021/03/09 01:28:45;;;;;;;0.73;0.60;;;0.40;99.90;;;;;;4994508;28;20188;-79
2021/03/09 01:31:11;;;;;;;0.63;0.60;;;0.40;99.90;;;;;;4981247;28;20244;-77
2021/03/09 01:33:37;;;;;;;1.27;0.53;;;0.30;99.90;;;;;;4983163;28;20216;-78
2021/03/09 01:36:03;;;;;;;0.60;0.47;;;0.30;99.90;;;;;;4983555;28;20196;-76
2021/03/09 01:38:28;;;;;;;0.60;0.60;;;0.30;99.90;;;;;;4999929;28;20587;-78
2021/03/09 01:40:54;;;;;;;0.73;0.60;;;0.30;99.90;;;;;;4981706;28;20216;-79
2021/03/09 01:43:19;;;;;;;0.53;0.53;;;0.20;99.90;;;;;;4982838;28;20219;-78
2021/03/09 01:45:45;;;;;;;0.50;0.37;;;0.20;99.90;;;;;;4987166;28;20219;-78
2021/03/09 01:48:11;;;;;;;0.60;0.60;;;0.20;99.90;;;;;;4988310;28;20193;-78
2021/03/09 01:50:41;;;;;;;0.93;0.73;;;0.10;99.90;;;;;;4986620;28;20310;-78
2021/03/09 01:53:07;;;;;;;0.70;0.47;;;0.10;99.90;;;;;;4988567;28;21087;-79
2021/03/09 01:55:34;;;;;;;1.43;0.87;;;0.00;99.90;;;;;;4985378;28;20639;-79
2021/03/09 01:58:05;;;;;;;2.47;0.90;;;0.10;99.90;;;;;;4988095;28;20718;-78
2021/03/09 02:00:31;;;;;;;0.90;0.60;;;0.00;99.90;;;;;;4988377;28;20224;-78
2021/03/09 02:02:58;;;;;;;2.47;1.03;;;0.00;99.90;;;;;;4987178;28;20686;-78
2021/03/09 02:05:23;;;;;;;1.10;1.00;;;-0.10;99.90;;;;;;4988373;28;20213;-78
2021/03/09 02:07:49;;;;;;;0.53;0.53;;;-0.10;99.90;;;;;;4987917;28;20276;-78
2021/03/09 02:10:15;;;;;;;0.60;0.40;;;-0.20;99.90;;;;;;4987153;28;20176;-78
2021/03/09 02:13:06;;;;;;;1.57;0.97;;;-0.20;99.90;;;;;;4987746;28;20201;-78
2021/03/09 02:15:48;;;;;;;0.40;0.30;;;-0.20;99.90;;;;;;4988329;28;20210;-78
2021/03/09 02:18:17;;;;;;;0.90;0.57;;;-0.20;99.90;;;;;;4988421;28;20284;-78
2021/03/09 02:21:15;;;;;;;0.83;0.53;;;-0.20;99.90;;;;;;4986659;28;20269;-78
2021/03/09 02:24:02;;;;;;;0.80;0.60;;;-0.30;99.90;;;;;;4986378;28;20227;-79
2021/03/09 02:27:05;;;;;;;1.37;0.67;;;-0.30;99.90;;;;;;4987243;28;20199;-78
2021/03/09 02:29:40;;;;;;;0.20;0.20;;;-0.30;99.90;;;;;;4988446;28;20553;-79
2021/03/09 02:32:09;;;;;;;1.77;0.70;;;-0.30;99.90;;;;;;4984097;28;20192;-78
2021/03/09 02:34:40;;;;;;;0.73;0.53;;;-0.20;99.90;;;;;;4985624;28;20188;-78
2021/03/09 02:37:13;;;;;;;0.93;0.60;;;-0.30;99.90;;;;;;4986401;28;20204;-80
2021/03/09 02:39:43;;;;;;;0.90;0.70;;;-0.20;99.90;;;;;;4984996;28;20447;-78
2021/03/09 02:42:11;;;;;;;0.83;0.77;;;-0.20;99.90;;;;;;4985167;28;20315;-78
2021/03/09 02:44:40;;;;;;;0.70;0.70;;;-0.30;99.90;;;;;;4984888;28;20204;-78
2021/03/09 02:47:08;;;;;;;0.53;0.53;;;-0.20;99.90;;;;;;4982877;28;20184;-80
2021/03/09 02:49:39;;;;;;;0.73;0.60;;;-0.20;99.90;;;;;;4981093;28;20268;-78
2021/03/09 02:52:06;;;;;;;0.87;0.70;;;-0.30;99.90;;;;;;4981896;28;20208;-78
2021/03/09 02:54:34;;;;;;;0.93;0.60;;;-0.30;99.90;;;;;;4980548;28;20184;-78
2021/03/09 02:57:01;;;;;;;0.90;0.67;;;-0.30;99.90;;;;;;4981706;28;20264;-78
2021/03/09 02:59:29;;;;;;;0.70;0.60;;;-0.30;99.90;;;;;;4998406;28;20196;-79
2021/03/09 03:01:56;;;;;;;0.73;0.57;;;-0.30;99.90;;;;;;4980878;28;20212;-79
2021/03/09 03:04:23;;;;;;;0.70;0.70;;;-0.30;99.90;;;;;;4982274;28;20275;-76
2021/03/09 03:06:51;;;;;;;0.70;0.50;;;-0.40;99.90;;;;;;4984937;28;20592;-78
2021/03/09 03:09:18;;;;;;;7.23;1.03;;;-0.40;99.90;;;;;;4982205;28;20200;-78
2021/03/09 03:11:45;;;;;;;0.70;0.57;;;-0.40;99.90;;;;;;4982118;28;20235;-78
2021/03/09 03:14:11;;;;;;;0.83;0.80;;;-0.40;99.90;;;;;;4982620;28;20209;-77
2021/03/09 03:16:39;;;;;;;1.13;0.80;;;-0.40;99.90;;;;;;4981139;28;20199;-79
2021/03/09 03:19:09;;;;;;;0.70;0.67;;;-0.50;99.90;;;;;;4997526;28;20995;-79
2021/03/09 03:21:40;;;;;;;0.50;0.40;;;-0.40;99.90;;;;;;4980573;28;20559;-80
2021/03/09 03:24:08;;;;;;;2.33;0.83;;;-0.40;99.90;;;;;;4978413;28;22084;-80
2021/03/09 03:26:37;;;;;;;2.83;1.00;;;-0.40;99.90;;;;;;4977784;28;20275;-80
2021/03/09 03:29:06;;;;;;;0.77;0.77;;;-0.40;99.90;;;;;;4977215;28;20196;-80
2021/03/09 03:31:33;;;;;;;0.53;0.50;;;-0.50;99.90;;;;;;4978796;28;20199;-80
2021/03/09 03:33:59;;;;;;;1.23;0.70;;;-0.50;99.90;;;;;;4977283;28;20642;-79
2021/03/09 03:36:25;;;;;;;0.60;0.60;;;-0.60;99.90;;;;;;4978919;28;21112;-80
2021/03/09 03:38:54;;;;;;;0.70;0.70;;;-0.60;99.90;;;;;;4977058;28;20212;-79
2021/03/09 03:41:20;;;;;;;5.83;1.10;;;-0.70;99.90;;;;;;4979895;28;20855;-80
2021/03/09 03:43:45;;;;;;;0.57;0.57;;;-0.70;99.90;;;;;;4978363;28;20205;-80
2021/03/09 03:46:11;;;;;;;0.90;0.60;;;-0.80;99.90;;;;;;4978145;28;20217;-79
2021/03/09 03:48:38;;;;;;;1.43;1.00;;;-0.80;99.90;;;;;;4978217;28;20188;-80
2021/03/09 03:51:07;;;;;;;0.70;0.67;;;-0.90;99.90;;;;;;4977661;28;20670;-79
2021/03/09 03:53:49;;;;;;;0.37;0.37;;;-1.00;99.90;;;;;;4978717;28;20205;-80
2021/03/09 03:56:23;;;;;;;0.60;0.50;;;-1.00;99.90;;;;;;4978162;28;20811;-80
2021/03/09 03:58:59;;;;;;;1.40;0.93;;;-1.00;99.90;;;;;;4977266;28;20302;-79
2021/03/09 04:01:26;;;;;;;0.80;0.70;;;-1.00;99.90;;;;;;5012991;28;20180;-79
2021/03/09 04:03:53;;;;;;;1.23;1.03;;;-1.10;99.90;;;;;;4979539;28;20262;-78
2021/03/09 04:06:25;;;;;;;0.93;0.70;;;-1.00;99.90;;;;;;4984525;28;20192;-78
2021/03/09 04:08:51;;;;;;;1.03;0.67;;;-1.00;99.90;;;;;;4987798;28;20177;-78
2021/03/09 04:11:17;;;;;;;0.70;0.67;;;-1.00;99.90;;;;;;4982183;28;20193;-77
2021/03/09 04:13:44;;;;;;;0.53;0.53;;;-1.00;99.90;;;;;;4981127;28;20236;-78
2021/03/09 04:16:13;;;;;;;0.80;0.60;;;-1.00;99.90;;;;;;4987790;28;20200;-78
2021/03/09 04:18:39;;;;;;;1.83;0.93;;;-1.00;99.90;;;;;;4986354;28;20199;-78
2021/03/09 04:21:06;;;;;;;1.30;1.13;;;-1.00;99.90;;;;;;4983050;28;20856;-78
2021/03/09 04:23:33;;;;;;;0.90;0.70;;;-0.90;99.90;;;;;;4984283;28;20212;-78
2021/03/09 04:26:00;;;;;;;0.73;0.73;;;-0.90;99.90;;;;;;4984209;28;20216;-78
2021/03/09 04:28:26;;;;;;;1.10;0.70;;;-0.80;99.90;;;;;;4984785;28;20358;-77
2021/03/09 04:30:52;;;;;;;0.60;0.50;;;-0.80;99.90;;;;;;4985267;28;20676;-78
2021/03/09 04:33:18;;;;;;;1.00;0.90;;;-0.70;99.90;;;;;;4983396;28;20208;-78
2021/03/09 04:35:44;;;;;;;1.10;0.93;;;-0.70;99.90;;;;;;4984014;28;20192;-78
2021/03/09 04:38:10;;;;;;;1.37;0.60;;;-0.70;99.90;;;;;;4983248;28;20189;-78
2021/03/09 04:40:37;;;;;;;0.87;0.60;;;-0.70;99.90;;;;;;4995886;28;20191;-78
2021/03/09 04:43:04;;;;;;;1.43;0.70;;;-0.70;99.90;;;;;;4979998;28;20706;-78
2021/03/09 04:45:30;;;;;;;0.73;0.50;;;-0.60;99.90;;;;;;4981043;28;20304;-78
2021/03/09 04:48:00;;;;;;;0.67;0.67;;;-0.60;99.90;;;;;;4980827;28;20258;-79
2021/03/09 04:50:27;;;;;;;0.93;0.60;;;-0.60;99.90;;;;;;4978789;28;20200;-78
2021/03/09 04:52:54;;;;;;;0.60;0.60;;;-0.50;99.90;;;;;;4975407;28;20243;-78
2021/03/09 04:55:22;;;;;;;0.97;0.70;;;-0.50;99.90;;;;;;4983871;28;20185;-79
2021/03/09 04:57:48;;;;;;;1.87;1.17;;;-0.50;99.90;;;;;;4989354;28;20216;-78
2021/03/09 05:00:17;;;;;;;1.17;0.63;;;-0.50;99.90;;;;;;4991898;28;20208;-78
2021/03/09 05:02:46;;;;;;;0.60;0.60;;;-0.40;99.90;;;;;;5002863;28;20204;-78
2021/03/09 05:05:13;;;;;;;4.27;0.87;;;-0.30;99.90;;;;;;4989868;28;20235;-79
2021/03/09 05:07:39;;;;;;;0.97;0.80;;;-0.40;99.90;;;;;;4990738;28;20270;-78
2021/03/09 05:10:06;;;;;;;1.27;1.07;;;-0.30;99.90;;;;;;4989997;28;20184;-78
2021/03/09 05:12:32;;;;;;;0.63;0.53;;;-0.30;99.90;;;;;;5022455;28;20210;-78
2021/03/09 05:14:58;;;;;;;0.63;0.63;;;-0.30;99.90;;;;;;4990489;28;20259;-79
2021/03/09 05:17:24;;;;;;;1.20;0.80;;;-0.20;99.90;;;;;;4992598;28;20188;-78
2021/03/09 05:19:49;;;;;;;1.73;0.60;;;-0.20;99.90;;;;;;4992441;28;20270;-78
2021/03/09 05:22:15;;;;;;;1.00;0.73;;;-0.20;99.90;;;;;;4986857;28;20195;-78
2021/03/09 05:24:40;;;;;;;0.90;0.90;;;-0.20;99.90;;;;;;4988619;28;20216;-78
2021/03/09 05:27:06;;;;;;;0.53;0.53;;;-0.20;99.90;;;;;;4987873;28;20594;-78
2021/03/09 05:29:32;;;;;;;0.40;0.40;;;-0.10;99.90;;;;;;4990351;28;20188;-78
2021/03/09 05:31:57;;;;;;;0.73;0.53;;;-0.10;99.90;;;;;;4990193;28;20189;-78
2021/03/09 05:34:23;;;;;;;1.27;0.87;;;-0.20;99.90;;;;;;4988035;28;20778;-78
2021/03/09 05:36:49;;;;;;;1.13;0.80;;;-0.10;99.90;;;;;;4983536;28;20254;-77
2021/03/09 05:39:14;;;;;;;0.70;0.60;;;-0.10;99.90;;;;;;4983057;28;20652;-78
2021/03/09 05:41:40;;;;;;;3.07;0.97;;;-0.10;99.90;;;;;;4985700;28;20277;-78
2021/03/09 05:44:06;;;;;;;0.90;0.80;;;0.00;99.90;;;;;;4989118;28;20208;-79
2021/03/09 05:46:32;;;;;;;1.87;1.03;;;0.00;99.90;;;;;;4982027;28;20196;-77
2021/03/09 05:48:58;;;;;;;0.97;0.87;;;0.00;99.90;;;;;;4975395;28;20699;-78
2021/03/09 05:51:25;;;;;;;1.23;0.97;;;0.10;99.90;;;;;;4971925;28;20203;-79
2021/03/09 05:53:50;;;;;;;1.07;0.77;;;0.10;99.90;;;;;;4971440;28;20211;-80
2021/03/09 05:56:16;;;;;;;1.27;1.10;;;0.10;99.90;;;;;;4971584;28;20193;-79
2021/03/09 05:58:42;;;;;;;2.33;0.93;;;0.10;99.90;;;;;;4969960;28;20203;-80
2021/03/09 06:01:08;;;;;;;1.10;0.97;;;0.20;99.90;;;;;;4989307;28;20203;-80
2021/03/09 06:03:33;;;;;;;1.10;0.90;;;0.10;99.90;;;;;;4978027;28;20225;-80
2021/03/09 06:05:59;;;;;;;0.93;0.87;;;0.10;99.90;;;;;;4968876;28;20224;-80
2021/03/09 06:08:25;;;;;;;1.63;1.37;;;0.20;99.90;;;;;;4967609;28;20208;-80
2021/03/09 06:10:50;;;;;;;1.13;0.80;;;0.10;99.90;;;;;;4973149;28;20674;-79
2021/03/09 06:13:35;;;;;;;0.93;0.83;;;0.20;99.90;;;;;;4973669;28;20235;-77
2021/03/09 06:16:01;;;;;;;1.07;0.93;;;0.20;99.90;;;;;;4975924;28;20185;-77
2021/03/09 06:18:27;;;;;;;1.53;0.80;;;0.20;99.90;;;;;;4977850;28;20196;-78
2021/03/09 06:21:15;;;;;;;0.97;0.80;;;0.30;99.90;;;;;;4981723;28;20203;-77
2021/03/09 06:23:42;;;;;;;0.47;0.47;;;0.30;99.90;;;;;;4979590;28;20204;-77
2021/03/09 06:26:34;;;;;;;1.67;1.10;;;0.30;99.90;;;;;;5014963;28;20236;-78
2021/03/09 06:29:14;;;;;;;1.27;0.67;;;0.30;99.90;;;;;;4984793;28;20223;-78
2021/03/09 06:31:59;;;;;;;0.87;0.63;;;0.40;99.90;;;;;;4989423;28;20188;-79
2021/03/09 06:34:27;;;;;;;1.17;0.90;;;0.40;99.90;;;;;;4989197;28;20200;-78
2021/03/09 06:37:14;;;;;;;8.30;0.97;;;0.50;99.90;;;;;;4992017;28;20226;-78
2021/03/09 06:40:06;;;;;;;4.00;0.93;;;0.50;99.90;;;;;;4988495;28;20658;-78
2021/03/09 06:42:36;;;;;;;0.73;0.67;;;0.50;99.90;;;;;;5001592;28;20267;-78
2021/03/09 06:45:06;;;;;;;0.80;0.80;;;0.50;99.90;;;;;;4990836;28;20216;-78
2021/03/09 06:47:34;;;;;;;2.50;1.13;;;0.50;99.90;;;;;;4987580;28;20203;-78
2021/03/09 06:50:00;;;;;;;1.23;1.13;;;0.60;99.90;;;;;;4988348;28;20208;-78
2021/03/09 06:52:26;;;;;;;2.63;1.57;;;0.60;99.90;;;;;;4991026;28;20247;-77
2021/03/09 06:54:54;;;;;;;0.90;0.50;;;0.70;99.90;;;;;;5020692;28;20192;-78
2021/03/09 06:57:20;;;;;;;1.97;1.00;;;0.80;99.90;;;;;;4989300;28;20244;-78
2021/03/09 06:59:49;;;;;;;2.17;1.03;;;0.80;99.90;;;;;;4988481;28;20197;-79
2021/03/09 07:02:23;;;;;;;1.10;1.00;;;0.90;99.90;;;;;;4991299;28;20200;-79
2021/03/09 07:04:54;;;;;;;0.93;0.83;;;0.90;99.90;;;;;;4987602;28;20297;-78
2021/03/09 07:07:36;;;;;;;0.70;0.70;;;0.90;99.90;;;;;;4992531;28;20194;-78
2021/03/09 07:10:11;;;;;;;1.43;0.80;;;0.90;99.90;;;;;;5005370;28;20185;-78
2021/03/09 07:12:39;;;;;;;1.07;0.87;;;1.00;99.90;;;;;;4987796;28;20235;-78
2021/03/09 07:15:07;;;;;;;1.10;1.00;;;1.10;99.90;;;;;;4988512;28;20365;-78
2021/03/09 07:17:35;;;;;;;3.43;1.20;;;1.30;99.90;;;;;;4987585;28;20217;-78
2021/03/09 07:20:02;;;;;;;1.00;1.00;;;1.40;99.90;;;;;;4988077;28;20699;-78
2021/03/09 07:22:29;;;;;;;1.43;1.00;;;1.40;99.90;;;;;;4988678;28;20220;-77
2021/03/09 07:25:04;;;;;;;1.00;0.70;;;1.50;99.90;;;;;;4988553;28;20229;-79
2021/03/09 07:27:45;;;;;;;1.27;0.87;;;1.70;99.90;;;;;;4995730;28;20188;-77
2021/03/09 07:30:13;;;;;;;1.37;1.17;;;1.90;99.90;;;;;;4981603;28;20187;-79
2021/03/09 07:32:41;;;;;;;1.20;1.10;;;2.00;99.90;;;;;;4981049;28;20213;-79
2021/03/09 07:35:08;;;;;;;2.80;1.40;;;2.10;99.90;;;;;;4981725;28;20188;-79
2021/03/09 07:37:39;;;;;;;2.80;1.30;;;2.10;99.90;;;;;;4982108;28;20221;-77
2021/03/09 07:40:16;;;;;;;1.33;0.80;;;2.20;99.90;;;;;;4980485;28;20195;-77
2021/03/09 07:42:42;;;;;;;1.87;1.33;;;2.30;99.90;;;;;;4983775;28;20296;-79
2021/03/09 07:45:10;;;;;;;4.30;1.67;;;2.40;99.90;;;;;;4982868;28;20299;-79
2021/03/09 07:47:42;;;;;;;2.70;1.10;;;2.40;99.90;;;;;;4982792;28;20196;-80
2021/03/09 07:50:12;;;;;;;3.97;1.90;;;2.50;99.90;;;;;;4984732;28;20207;-77
2021/03/09 07:52:39;;;;;;;1.40;1.30;;;2.60;99.90;;;;;;5016243;28;20249;-78
2021/03/09 07:55:04;;;;;;;1.60;1.10;;;2.60;99.90;;;;;;4984268;28;20212;-78
2021/03/09 07:57:32;;;;;;;2.90;1.17;;;2.80;99.90;;;;;;4984996;28;20180;-79
2021/03/09 08:00:09;;;;;;;0.97;0.80;;;2.70;99.90;;;;;;5017045;28;20237;-79
2021/03/09 08:02:39;;;;;;;1.97;1.50;;;2.70;99.90;;;;;;4984269;28;20212;-79
2021/03/09 08:05:07;;;;;;;2.27;1.20;;;2.70;99.90;;;;;;4984226;28;20238;-79
2021/03/09 08:07:59;;;;;;;2.60;1.20;;;2.80;99.90;;;;;;4982678;28;20647;-78
2021/03/09 08:10:27;;;;;;;4.07;1.63;;;2.70;99.90;;;;;;4989081;28;20673;-79
2021/03/09 08:13:15;;;;;;;1.83;1.10;;;2.80;99.90;;;;;;5005239;28;20204;-79
2021/03/09 08:15:42;;;;;;;2.20;1.33;;;2.80;99.90;;;;;;4990000;28;20191;-78
2021/03/09 08:18:17;;;;;;;2.43;1.30;;;2.80;99.90;;;;;;4986697;28;20181;-79
2021/03/09 08:20:56;;;;;;;2.47;1.87;;;2.90;99.90;;;;;;5003618;28;20188;-79
2021/03/09 08:23:34;;;;;;;1.90;1.73;;;3.00;99.90;;;;;;4982311;28;20205;-80
2021/03/09 08:26:07;;;;;;;2.23;1.80;;;3.20;99.90;;;;;;4995357;28;20710;-80
2021/03/09 08:28:37;;;;;;;2.23;1.73;;;3.10;99.90;;;;;;5013061;28;20184;-79
2021/03/09 08:31:12;;;;;;;1.67;1.30;;;3.20;99.90;;;;;;4980760;28;20639;-80
2021/03/09 08:33:38;;;;;;;2.47;1.60;;;3.30;99.90;;;;;;4980615;28;20770;-78
2021/03/09 08:36:26;;;;;;;1.83;1.63;;;3.30;99.90;;;;;;4981381;28;20192;-80
2021/03/09 08:39:04;;;;;;;2.50;1.63;;;3.40;99.90;;;;;;4980408;28;20177;-79
2021/03/09 08:41:37;;;;;;;2.33;1.87;;;3.40;99.90;;;;;;4975694;28;20185;-79
2021/03/09 08:47:05;;;;;;;2.53;1.40;;;3.70;99.90;;;;;;4981056;28;20189;-80
2021/03/09 08:49:37;;;;;;;3.13;1.80;;;3.90;99.90;;;;;;4995391;28;20408;-79
2021/03/09 08:52:41;;;;;;;3.30;1.93;;;4.10;99.90;;;;;;4978570;28;20734;-80
2021/03/09 08:55:07;;;;;;;2.13;1.40;;;4.00;99.90;;;;;;4977226;28;20188;-79
2021/03/09 08:57:32;;;;;;;1.93;1.73;;;4.00;99.90;;;;;;4979327;28;20252;-80
2021/03/09 09:00:10;;;;;;;1.93;1.77;;;4.00;99.90;;;;;;4978974;28;20201;-79
2021/03/09 09:02:43;;;;;;;3.03;2.10;;;4.10;99.90;;;;;;4979078;28;20240;-79
2021/03/09 09:05:10;;;;;;;3.73;1.93;;;4.30;99.90;;;;;;4978523;28;20200;-77
2021/03/09 09:07:39;;;;;;;2.30;2.03;;;4.40;99.90;;;;;;4979497;28;20184;-80
2021/03/09 09:10:23;;;;;;;2.93;1.80;;;4.70;99.90;;;;;;4982228;28;21117;-80
2021/03/09 09:12:51;;;;;;;2.60;2.13;;;4.90;99.90;;;;;;4981693;28;20217;-80
2021/03/09 09:15:22;;;;;;;4.90;2.60;;;4.90;99.90;;;;;;4980552;28;20192;-80
2021/03/09 09:18:01;;;;;;;2.87;1.90;;;5.00;99.90;;;;;;4980560;28;20180;-78
2021/03/09 09:20:37;;;;;;;2.43;1.63;;;5.00;99.90;;;;;;4978034;28;20188;-79
2021/03/09 09:23:14;;;;;;;2.73;1.87;;;4.90;99.90;;;;;;4977003;28;20204;-80
2021/03/09 09:25:42;;;;;;;3.67;2.20;;;4.90;99.90;;;;;;5009860;28;20212;-79
2021/03/09 09:28:09;;;;;;;2.23;1.67;;;4.90;99.90;;;;;;4977299;28;20177;-79
2021/03/09 09:30:34;;;;;;;2.90;2.17;;;4.80;99.90;;;;;;4978567;28;20263;-79
2021/03/09 09:33:00;;;;;;;2.70;2.17;;;4.70;99.90;;;;;;4994852;28;20304;-79
2021/03/09 09:35:30;;;;;;;3.80;2.57;;;4.70;99.90;;;;;;4976822;28;20191;-79
2021/03/09 09:38:02;;;;;;;5.03;3.20;;;4.60;99.90;;;;;;4977130;28;20227;-79
2021/03/09 09:40:36;;;;;;;3.37;2.63;;;4.70;99.90;;;;;;4977220;28;20180;-79
2021/03/09 09:43:09;;;;;;;5.33;3.10;;;4.80;99.90;;;;;;4977857;28;20296;-79
2021/03/09 09:45:45;;;;;;;2.57;2.10;;;4.80;99.90;;;;;;4977253;28;20283;-79
2021/03/09 09:48:17;;;;;;;3.40;2.53;;;4.90;99.90;;;;;;4975451;28;20187;-79
2021/03/09 09:50:58;;;;;;;2.47;2.07;;;5.00;99.90;;;;;;4977145;28;20967;-77
2021/03/09 09:53:34;;;;;;;3.13;2.07;;;5.20;99.90;;;;;;4977066;28;20239;-78
2021/03/09 09:56:01;;;;;;;2.93;1.70;;;5.20;99.90;;;;;;4976396;28;20231;-79
2021/03/09 09:58:45;;;;;;;3.57;2.43;;;5.00;99.90;;;;;;4978129;28;20202;-78
2021/03/09 10:01:13;;;;;;;3.20;2.10;;;4.90;99.90;;;;;;4976302;28;20187;-78
2021/03/09 10:04:03;;;;;;;4.60;2.30;;;5.00;99.90;;;;;;4975988;28;20684;-78
2021/03/09 10:06:34;;;;;;;4.80;2.73;;;5.10;99.90;;;;;;4977410;28;20219;-78
2021/03/09 10:09:28;;;;;;;4.03;2.27;;;5.10;99.90;;;;;;4978008;28;20203;-78
2021/03/09 10:11:57;;;;;;;2.60;2.00;;;5.20;99.90;;;;;;4975352;28;20271;-78
2021/03/09 10:14:36;;;;;;;3.27;2.47;;;5.50;99.90;;;;;;5009398;28;20201;-78
2021/03/09 10:17:03;;;;;;;2.37;1.80;;;5.30;99.90;;;;;;4976792;28;20188;-77
2021/03/09 10:19:39;;;;;;;2.80;2.30;;;5.20;99.90;;;;;;4981194;28;20184;-78
2021/03/09 10:22:17;;;;;;;2.10;1.73;;;5.10;99.90;;;;;;4980210;28;20190;-80
2021/03/09 10:24:42;;;;;;;3.63;2.57;;;5.10;99.90;;;;;;4975384;28;20346;-78
2021/03/09 10:27:14;;;;;;;3.33;1.83;;;5.20;99.90;;;;;;4976666;28;20286;-78
2021/03/09 10:29:40;;;;;;;2.37;1.93;;;5.40;99.90;;;;;;4976667;28;20223;-79
2021/03/09 10:32:14;;;;;;;3.30;2.33;;;5.30;99.90;;;;;;4975414;28;20188;-80
2021/03/09 10:34:47;;;;;;;3.70;2.40;;;5.50;99.90;;;;;;4975368;28;20602;-78
2021/03/09 10:37:16;;;;;;;5.37;1.97;;;5.60;99.90;;;;;;4977002;28;20199;-80
2021/03/09 10:39:56;;;;;;;1.90;1.53;;;5.50;99.90;;;;;;4977885;28;20262;-80
2021/03/09 10:42:39;;;;;;;3.63;2.60;;;5.30;99.90;;;;;;4975704;28;20191;-80
2021/03/09 10:45:20;;;;;;;2.03;1.57;;;5.00;99.90;;;;;;4976227;28;20216;-78
2021/03/09 10:48:00;;;;;;;2.30;2.10;;;4.80;99.90;;;;;;4974052;28;20185;-79
2021/03/09 10:50:28;;;;;;;2.67;2.10;;;4.90;99.90;;;;;;4975419;28;20208;-78
2021/03/09 10:52:54;;;;;;;2.23;1.57;;;5.10;99.90;;;;;;4977336;28;20576;-79
2021/03/09 10:55:20;;;;;;;3.80;1.80;;;5.10;99.90;;;;;;4989851;28;20191;-79
2021/03/09 10:57:46;;;;;;;3.17;2.17;;;5.10;99.90;;;;;;4976180;28;20762;-79
2021/03/09 11:00:19;;;;;;;2.10;1.87;;;5.10;99.90;;;;;;4978261;28;20203;-81
2021/03/09 11:02:45;;;;;;;3.23;2.33;;;5.20;99.90;;;;;;4976098;28;20283;-78
2021/03/09 11:05:12;;;;;;;3.53;2.20;;;5.10;99.90;;;;;;4977122;28;20216;-80
2021/03/09 11:07:38;;;;;;;2.27;1.90;;;5.30;99.90;;;;;;4975720;28;20208;-80
2021/03/09 11:10:06;;;;;;;2.33;1.90;;;5.40;99.90;;;;;;4973815;28;20181;-80
2021/03/09 11:12:32;;;;;;;4.37;2.67;;;5.40;99.90;;;;;;5008003;28;20967;-79
2021/03/09 11:14:57;;;;;;;3.83;2.40;;;5.40;99.90;;;;;;4975589;28;20189;-79
2021/03/09 11:17:23;;;;;;;3.90;2.20;;;5.40;99.90;;;;;;4976990;28;20705;-80
2021/03/09 11:19:49;;;;;;;2.70;1.80;;;5.30;99.90;;;;;;4974243;28;20193;-80
2021/03/09 11:22:17;;;;;;;3.33;2.03;;;5.40;99.90;;;;;;4977637;28;20185;-81
2021/03/09 11:24:43;;;;;;;2.73;1.97;;;5.50;99.90;;;;;;4976081;28;20211;-79
2021/03/09 11:27:09;;;;;;;2.53;2.00;;;5.40;99.90;;;;;;4975994;28;20243;-78
2021/03/09 11:29:37;;;;;;;3.70;2.43;;;5.50;99.90;;;;;;4975456;28;20300;-78
2021/03/09 11:32:04;;;;;;;2.50;1.83;;;5.30;99.90;;;;;;4973491;28;20239;-78
2021/03/09 11:34:29;;;;;;;2.63;1.97;;;5.40;99.90;;;;;;4975419;28;20204;-78
2021/03/09 11:36:55;;;;;;;3.63;2.53;;;5.40;99.90;;;;;;4974688;28;20971;-79
2021/03/09 11:39:21;;;;;;;2.37;1.70;;;5.30;99.90;;;;;;4977672;28;20177;-78
2021/03/09 11:41:49;;;;;;;2.20;1.57;;;5.20;99.90;;;;;;4976132;28;20239;-79
2021/03/09 11:44:15;;;;;;;3.87;2.53;;;5.10;99.90;;;;;;4974019;28;20239;-79
2021/03/09 11:46:41;;;;;;;3.50;2.33;;;5.00;99.90;;;;;;4977272;28;20204;-77
2021/03/09 11:49:07;;;;;;;3.53;2.33;;;5.00;99.90;;;;;;4976736;28;20184;-80
2021/03/09 11:51:33;;;;;;;4.27;2.10;;;4.90;99.90;;;;;;4978150;28;20566;-78
2021/03/09 11:53:58;;;;;;;3.63;2.17;;;4.90;99.90;;;;;;4976369;28;20204;-78
2021/03/09 11:56:24;;;;;;;3.30;2.30;;;4.90;99.90;;;;;;4975254;28;20243;-79
2021/03/09 11:58:50;;;;;;;3.73;2.23;;;5.00;99.90;;;;;;4991412;28;20239;-78
2021/03/09 12:01:17;;;;;;;3.43;2.10;;;5.00;99.90;;;;;;4992846;28;20188;-78
2021/03/09 12:03:43;;;;;;;2.17;1.80;;;5.10;99.90;;;;;;4974546;28;20208;-80
2021/03/09 12:06:08;;;;;;;1.77;1.60;;;5.00;99.90;;;;;;4976286;28;20315;-79
2021/03/09 12:08:34;;;;;;;3.00;2.23;;;4.80;99.90;;;;;;4976552;28;20216;-77
2021/03/09 12:11:00;;;;;;;4.23;2.90;;;4.70;99.90;;;;;;4975926;28;20181;-79
2021/03/09 12:13:25;;;;;;;4.23;2.23;;;4.70;99.90;;;;;;4974781;28;20204;-78
2021/03/09 12:15:51;;;;;;;3.37;2.17;;;4.80;99.90;;;;;;4976518;28;20221;-77
2021/03/09 12:18:17;;;;;;;5.90;3.37;;;4.80;99.90;;;;;;4977598;28;20192;-77
2021/03/09 12:20:42;;;;;;;3.90;2.70;;;4.80;99.90;;;;;;4974453;28;20196;-79
2021/03/09 12:23:09;;;;;;;2.60;2.10;;;4.80;99.90;;;;;;4976037;28;20200;-77
2021/03/09 12:25:35;;;;;;;3.30;2.37;;;4.80;99.90;;;;;;4974358;28;20231;-78
2021/03/09 12:28:00;;;;;;;6.17;2.07;;;4.90;99.90;;;;;;4973600;28;20742;-78
2021/03/09 12:30:27;;;;;;;3.87;2.33;;;4.70;99.90;;;;;;4974980;28;20550;-77
2021/03/09 12:32:53;;;;;;;3.40;2.50;;;4.60;99.90;;;;;;4975985;28;20207;-78
2021/03/09 12:35:18;;;;;;;4.27;2.97;;;4.70;99.90;;;;;;4976406;28;20180;-79
2021/03/09 12:37:44;;;;;;;2.67;2.20;;;4.80;99.90;;;;;;4978615;28;20276;-79
2021/03/09 12:40:10;;;;;;;2.50;1.57;;;4.90;99.90;;;;;;4979401;28;20681;-78
2021/03/09 12:42:36;;;;;;;2.77;2.17;;;4.80;99.90;;;;;;4978424;28;20866;-78
2021/03/09 12:45:04;;;;;;;3.60;2.83;;;4.90;99.90;;;;;;4978825;28;20200;-78
2021/03/09 12:47:29;;;;;;;3.43;2.53;;;4.80;99.90;;;;;;4979046;28;20342;-78
2021/03/09 12:49:55;;;;;;;3.90;2.17;;;4.80;99.90;;;;;;4979011;28;20288;-78
2021/03/09 12:52:21;;;;;;;2.93;2.43;;;4.60;99.90;;;;;;4978215;28;20209;-79
2021/03/09 12:54:46;;;;;;;3.70;2.63;;;4.70;99.90;;;;;;4979178;28;20268;-78
2021/03/09 12:57:12;;;;;;;4.70;3.17;;;4.70;99.90;;;;;;4979073;28;20185;-77
2021/03/09 12:59:38;;;;;;;4.93;3.33;;;4.60;99.90;;;;;;4977928;28;20240;-78
2021/03/09 13:02:03;;;;;;;5.97;3.87;;;4.70;99.90;;;;;;4976134;28;20189;-77
2021/03/09 13:04:29;;;;;;;3.97;3.10;;;4.60;99.90;;;;;;4978662;28;20212;-78
2021/03/09 13:06:55;;;;;;;3.57;2.37;;;4.60;99.90;;;;;;4979098;28;20181;-79
2021/03/09 13:09:21;;;;;;;2.87;2.57;;;4.50;99.90;;;;;;4979010;28;20852;-78